sensor_id;sensor_type;location;lat;lon;timestamp;P1;P2;P0
42510;PMS7003;28141;51.120;17.114;2022-12-29T00:02:57;9;2;1
42510;PMS7003;28141;51.120;17.114;2022-12-29T00:06:01;11;3;2
42510;PMS7003;28141;51.120;17.114;2022-12-29T00:09:05;8;1;0
42510;PMS7003;28141;51.120;17.114;2022-12-29T00:12:08;9;2;1
42510;PMS7003;28141;51.120;17.114;2022-12-29T00:15:12;8;1;1
42510;PMS7003;28141;51.120;17.114;2022-12-29T00:18:27;9;2;2
42510;PMS7003;28141;51.120;17.114;2022-12-29T00:21:30;10;3;2
42510;PMS7003;28141;51.120;17.114;2022-12-29T00:25:13;9;3;2
42510;PMS7003;28141;51.120;17.114;2022-12-29T00:28:28;11;3;2
42510;PMS7003;28141;51.120;17.114;2022-12-29T00:31:44;9;2;1
42510;PMS7003;28141;51.120;17.114;2022-12-29T00:34:59;9;2;1
42510;PMS7003;28141;51.120;17.114;2022-12-29T00:38:37;9;2;1
42510;PMS7003;28141;51.120;17.114;2022-12-29T00:42:07;9;2;1
42510;PMS7003;28141;51.120;17.114;2022-12-29T00:45:19;9;2;2
42510;PMS7003;28141;51.120;17.114;2022-12-29T00:48:22;9;3;2
42510;PMS7003;28141;51.120;17.114;2022-12-29T00:52:08;10;3;2
42510;PMS7003;28141;51.120;17.114;2022-12-29T00:55:15;8;2;1
42510;PMS7003;28141;51.120;17.114;2022-12-29T00:58:18;10;3;2
42510;PMS7003;28141;51.120;17.114;2022-12-29T01:01:21;10;3;1
42510;PMS7003;28141;51.120;17.114;2022-12-29T01:04:25;8;1;1
42510;PMS7003;28141;51.120;17.114;2022-12-29T01:07:29;11;3;2
42510;PMS7003;28141;51.120;17.114;2022-12-29T01:10:32;10;2;1
42510;PMS7003;28141;51.120;17.114;2022-12-29T01:13:36;10;2;1
42510;PMS7003;28141;51.120;17.114;2022-12-29T01:16:46;9;2;1
42510;PMS7003;28141;51.120;17.114;2022-12-29T01:20:16;9;1;1
42510;PMS7003;28141;51.120;17.114;2022-12-29T01:23:20;10;1;1
42510;PMS7003;28141;51.120;17.114;2022-12-29T01:26:23;8;2;1
42510;PMS7003;28141;51.120;17.114;2022-12-29T01:29:26;9;2;1
42510;PMS7003;28141;51.120;17.114;2022-12-29T01:32:29;9;2;1
42510;PMS7003;28141;51.120;17.114;2022-12-29T01:35:33;9;2;1
42510;PMS7003;28141;51.120;17.114;2022-12-29T01:38:36;8;2;1
42510;PMS7003;28141;51.120;17.114;2022-12-29T01:41:41;10;2;0
42510;PMS7003;28141;51.120;17.114;2022-12-29T01:47:58;10;2;1
42510;PMS7003;28141;51.120;17.114;2022-12-29T01:51:31;9;1;1
42510;PMS7003;28141;51.120;17.114;2022-12-29T01:54:42;13;3;2
42510;PMS7003;28141;51.120;17.114;2022-12-29T01:57:51;9;2;1
42510;PMS7003;28141;51.120;17.114;2022-12-29T02:00:57;9;2;1
42510;PMS7003;28141;51.120;17.114;2022-12-29T02:04:01;8;2;1
42510;PMS7003;28141;51.120;17.114;2022-12-29T02:07:07;9;3;2
42510;PMS7003;28141;51.120;17.114;2022-12-29T02:10:19;9;2;1
42510;PMS7003;28141;51.120;17.114;2022-12-29T02:13:50;9;3;1
42510;PMS7003;28141;51.120;17.114;2022-12-29T02:17:03;9;2;1
42510;PMS7003;28141;51.120;17.114;2022-12-29T02:23:36;9;2;1
42510;PMS7003;28141;51.120;17.114;2022-12-29T02:30:30;10;3;1
42510;PMS7003;28141;51.120;17.114;2022-12-29T02:33:50;9;2;1
42510;PMS7003;28141;51.120;17.114;2022-12-29T02:47:21;8;1;1
42510;PMS7003;28141;51.120;17.114;2022-12-29T02:50:32;9;2;1
42510;PMS7003;28141;51.120;17.114;2022-12-29T02:54:08;9;2;1
42510;PMS7003;28141;51.120;17.114;2022-12-29T03:00:39;9;2;1
42510;PMS7003;28141;51.120;17.114;2022-12-29T03:03:54;9;1;0
42510;PMS7003;28141;51.120;17.114;2022-12-29T03:07:35;9;2;1
42510;PMS7003;28141;51.120;17.114;2022-12-29T03:24:37;8;2;1
42510;PMS7003;28141;51.120;17.114;2022-12-29T03:27:44;8;2;1
42510;PMS7003;28141;51.120;17.114;2022-12-29T03:31:19;9;2;1
42510;PMS7003;28141;51.120;17.114;2022-12-29T03:34:25;8;1;1
42510;PMS7003;28141;51.120;17.114;2022-12-29T03:37:32;9;2;1
42510;PMS7003;28141;51.120;17.114;2022-12-29T03:40:41;11;2;1
42510;PMS7003;28141;51.120;17.114;2022-12-29T03:43:48;8;2;1
42510;PMS7003;28141;51.120;17.114;2022-12-29T03:46:51;10;2;1
42510;PMS7003;28141;51.120;17.114;2022-12-29T03:49:54;9;1;1
42510;PMS7003;28141;51.120;17.114;2022-12-29T03:52:58;8;1;0
42510;PMS7003;28141;51.120;17.114;2022-12-29T03:56:01;8;1;0
42510;PMS7003;28141;51.120;17.114;2022-12-29T03:59:30;8;1;1
42510;PMS7003;28141;51.120;17.114;2022-12-29T04:02:34;9;2;2
42510;PMS7003;28141;51.120;17.114;2022-12-29T04:05:37;9;2;1
42510;PMS7003;28141;51.120;17.114;2022-12-29T04:08:40;10;2;1
42510;PMS7003;28141;51.120;17.114;2022-12-29T04:11:43;9;1;1
42510;PMS7003;28141;51.120;17.114;2022-12-29T04:14:47;9;2;1
42510;PMS7003;28141;51.120;17.114;2022-12-29T04:17:50;9;2;1
42510;PMS7003;28141;51.120;17.114;2022-12-29T04:20:53;9;2;1
42510;PMS7003;28141;51.120;17.114;2022-12-29T04:24:03;8;1;0
42510;PMS7003;28141;51.120;17.114;2022-12-29T04:27:09;8;1;1
42510;PMS7003;28141;51.120;17.114;2022-12-29T04:30:40;10;3;2
42510;PMS7003;28141;51.120;17.114;2022-12-29T04:33:45;9;2;1
42510;PMS7003;28141;51.120;17.114;2022-12-29T04:36:48;9;1;1
42510;PMS7003;28141;51.120;17.114;2022-12-29T04:39:52;9;2;1
42510;PMS7003;28141;51.120;17.114;2022-12-29T04:42:55;9;2;1
42510;PMS7003;28141;51.120;17.114;2022-12-29T04:45:59;8;2;1
42510;PMS7003;28141;51.120;17.114;2022-12-29T04:49:02;9;2;1
42510;PMS7003;28141;51.120;17.114;2022-12-29T04:52:10;8;2;1
42510;PMS7003;28141;51.120;17.114;2022-12-29T04:55:14;8;2;1
42510;PMS7003;28141;51.120;17.114;2022-12-29T04:58:18;8;2;1
42510;PMS7003;28141;51.120;17.114;2022-12-29T05:01:51;10;2;1
42510;PMS7003;28141;51.120;17.114;2022-12-29T05:04:54;9;2;1
42510;PMS7003;28141;51.120;17.114;2022-12-29T05:07:58;11;3;2
42510;PMS7003;28141;51.120;17.114;2022-12-29T05:11:01;8;1;1
42510;PMS7003;28141;51.120;17.114;2022-12-29T05:14:04;8;2;0
42510;PMS7003;28141;51.120;17.114;2022-12-29T05:17:08;9;2;1
42510;PMS7003;28141;51.120;17.114;2022-12-29T05:20:12;11;3;2
42510;PMS7003;28141;51.120;17.114;2022-12-29T05:23:16;11;4;2
42510;PMS7003;28141;51.120;17.114;2022-12-29T05:26:19;9;3;2
42510;PMS7003;28141;51.120;17.114;2022-12-29T05:29:23;9;3;2
42510;PMS7003;28141;51.120;17.114;2022-12-29T05:32:26;10;3;2
42510;PMS7003;28141;51.120;17.114;2022-12-29T05:36:03;9;3;2
42510;PMS7003;28141;51.120;17.114;2022-12-29T05:39:09;9;2;2
42510;PMS7003;28141;51.120;17.114;2022-12-29T05:42:13;11;4;2
42510;PMS7003;28141;51.120;17.114;2022-12-29T05:45:16;9;2;2
42510;PMS7003;28141;51.120;17.114;2022-12-29T05:48:20;9;3;2
42510;PMS7003;28141;51.120;17.114;2022-12-29T05:51:23;9;2;1
42510;PMS7003;28141;51.120;17.114;2022-12-29T05:54:27;9;3;2
42510;PMS7003;28141;51.120;17.114;2022-12-29T05:57:30;10;3;2
42510;PMS7003;28141;51.120;17.114;2022-12-29T06:00:34;9;2;1
42510;PMS7003;28141;51.120;17.114;2022-12-29T06:03:37;9;2;1
42510;PMS7003;28141;51.120;17.114;2022-12-29T06:07:07;13;3;2
42510;PMS7003;28141;51.120;17.114;2022-12-29T06:10:10;12;2;2
42510;PMS7003;28141;51.120;17.114;2022-12-29T06:13:14;10;3;2
42510;PMS7003;28141;51.120;17.114;2022-12-29T06:16:17;9;3;2
42510;PMS7003;28141;51.120;17.114;2022-12-29T06:19:21;10;2;1
42510;PMS7003;28141;51.120;17.114;2022-12-29T06:22:24;11;4;1
42510;PMS7003;28141;51.120;17.114;2022-12-29T06:25:28;9;2;2
42510;PMS7003;28141;51.120;17.114;2022-12-29T06:28:34;10;3;2
42510;PMS7003;28141;51.120;17.114;2022-12-29T06:31:38;10;3;2
42510;PMS7003;28141;51.120;17.114;2022-12-29T06:34:41;11;3;2
42510;PMS7003;28141;51.120;17.114;2022-12-29T06:37:44;9;2;1
42510;PMS7003;28141;51.120;17.114;2022-12-29T06:41:14;10;3;2
42510;PMS7003;28141;51.120;17.114;2022-12-29T06:44:17;9;2;2
42510;PMS7003;28141;51.120;17.114;2022-12-29T06:47:21;10;2;2
42510;PMS7003;28141;51.120;17.114;2022-12-29T06:50:24;10;3;2
42510;PMS7003;28141;51.120;17.114;2022-12-29T06:53:28;11;3;2
42510;PMS7003;28141;51.120;17.114;2022-12-29T06:56:31;10;3;2
42510;PMS7003;28141;51.120;17.114;2022-12-29T06:59:34;10;3;2
42510;PMS7003;28141;51.120;17.114;2022-12-29T07:02:38;10;3;2
42510;PMS7003;28141;51.120;17.114;2022-12-29T07:05:41;10;3;2
42510;PMS7003;28141;51.120;17.114;2022-12-29T07:08:45;13;4;2
42510;PMS7003;28141;51.120;17.114;2022-12-29T07:11:48;11;4;2
42510;PMS7003;28141;51.120;17.114;2022-12-29T07:15:20;10;3;2
42510;PMS7003;28141;51.120;17.114;2022-12-29T07:18:24;11;4;2
42510;PMS7003;28141;51.120;17.114;2022-12-29T07:21:27;10;3;2
42510;PMS7003;28141;51.120;17.114;2022-12-29T07:24:31;11;4;3
42510;PMS7003;28141;51.120;17.114;2022-12-29T07:27:34;12;4;2
42510;PMS7003;28141;51.120;17.114;2022-12-29T07:30:37;11;4;2
42510;PMS7003;28141;51.120;17.114;2022-12-29T07:33:41;11;4;3
42510;PMS7003;28141;51.120;17.114;2022-12-29T07:36:46;13;5;3
42510;PMS7003;28141;51.120;17.114;2022-12-29T07:39:49;10;3;3
42510;PMS7003;28141;51.120;17.114;2022-12-29T07:42:52;12;4;2
42510;PMS7003;28141;51.120;17.114;2022-12-29T07:45:58;11;3;2
42510;PMS7003;28141;51.120;17.114;2022-12-29T07:49:28;11;4;3
42510;PMS7003;28141;51.120;17.114;2022-12-29T07:52:32;11;4;2
42510;PMS7003;28141;51.120;17.114;2022-12-29T07:55:35;12;5;3
42510;PMS7003;28141;51.120;17.114;2022-12-29T07:58:39;11;4;3
42510;PMS7003;28141;51.120;17.114;2022-12-29T08:01:42;11;4;3
42510;PMS7003;28141;51.120;17.114;2022-12-29T08:04:45;11;4;3
42510;PMS7003;28141;51.120;17.114;2022-12-29T08:07:49;12;4;3
42510;PMS7003;28141;51.120;17.114;2022-12-29T08:10:52;11;4;2
42510;PMS7003;28141;51.120;17.114;2022-12-29T08:13:55;11;4;3
42510;PMS7003;28141;51.120;17.114;2022-12-29T08:16:59;10;4;3
42510;PMS7003;28141;51.120;17.114;2022-12-29T08:20:02;11;4;3
42510;PMS7003;28141;51.120;17.114;2022-12-29T08:23:36;13;5;3
42510;PMS7003;28141;51.120;17.114;2022-12-29T08:26:39;10;4;3
42510;PMS7003;28141;51.120;17.114;2022-12-29T08:29:42;12;5;4
42510;PMS7003;28141;51.120;17.114;2022-12-29T08:32:46;11;5;3
42510;PMS7003;28141;51.120;17.114;2022-12-29T08:35:49;14;5;3
42510;PMS7003;28141;51.120;17.114;2022-12-29T08:38:52;12;5;3
42510;PMS7003;28141;51.120;17.114;2022-12-29T08:41:56;14;7;4
42510;PMS7003;28141;51.120;17.114;2022-12-29T08:44:59;11;4;3
42510;PMS7003;28141;51.120;17.114;2022-12-29T08:48:03;11;4;3
42510;PMS7003;28141;51.120;17.114;2022-12-29T08:51:07;12;5;4
42510;PMS7003;28141;51.120;17.114;2022-12-29T08:54:11;14;5;3
42510;PMS7003;28141;51.120;17.114;2022-12-29T08:57:42;13;5;4
42510;PMS7003;28141;51.120;17.114;2022-12-29T09:00:45;11;4;3
42510;PMS7003;28141;51.120;17.114;2022-12-29T09:03:49;11;4;3
42510;PMS7003;28141;51.120;17.114;2022-12-29T09:06:52;12;4;2
42510;PMS7003;28141;51.120;17.114;2022-12-29T09:09:56;15;5;3
42510;PMS7003;28141;51.120;17.114;2022-12-29T09:12:59;13;5;3
42510;PMS7003;28141;51.120;17.114;2022-12-29T09:16:03;12;5;4
42510;PMS7003;28141;51.120;17.114;2022-12-29T09:19:15;12;6;3
42510;PMS7003;28141;51.120;17.114;2022-12-29T09:22:18;13;5;3
42510;PMS7003;28141;51.120;17.114;2022-12-29T09:25:22;13;5;3
42510;PMS7003;28141;51.120;17.114;2022-12-29T09:28:27;13;6;4
42510;PMS7003;28141;51.120;17.114;2022-12-29T09:31:31;11;4;3
42510;PMS7003;28141;51.120;17.114;2022-12-29T09:34:34;11;5;3
42510;PMS7003;28141;51.120;17.114;2022-12-29T09:37:38;13;5;3
42510;PMS7003;28141;51.120;17.114;2022-12-29T09:40:41;12;5;3
42510;PMS7003;28141;51.120;17.114;2022-12-29T09:43:59;13;5;3
42510;PMS7003;28141;51.120;17.114;2022-12-29T09:47:30;13;5;3
42510;PMS7003;28141;51.120;17.114;2022-12-29T09:50:34;13;4;3
42510;PMS7003;28141;51.120;17.114;2022-12-29T09:53:45;11;4;2
42510;PMS7003;28141;51.120;17.114;2022-12-29T09:56:56;12;5;3
42510;PMS7003;28141;51.120;17.114;2022-12-29T10:00:22;11;4;3
42510;PMS7003;28141;51.120;17.114;2022-12-29T10:03:17;12;4;3
42510;PMS7003;28141;51.120;17.114;2022-12-29T10:13:25;11;4;3
42510;PMS7003;28141;51.120;17.114;2022-12-29T10:17:21;12;5;3
42510;PMS7003;28141;51.120;17.114;2022-12-29T10:26:44;14;6;3
42510;PMS7003;28141;51.120;17.114;2022-12-29T10:29:56;12;5;3
42510;PMS7003;28141;51.120;17.114;2022-12-29T10:33:03;12;5;3
42510;PMS7003;28141;51.120;17.114;2022-12-29T10:36:41;13;6;3
42510;PMS7003;28141;51.120;17.114;2022-12-29T10:39:52;12;5;4
42510;PMS7003;28141;51.120;17.114;2022-12-29T10:42:57;12;4;3
42510;PMS7003;28141;51.120;17.114;2022-12-29T10:46:09;12;5;4
42510;PMS7003;28141;51.120;17.114;2022-12-29T10:49:15;15;6;3
42510;PMS7003;28141;51.120;17.114;2022-12-29T10:52:21;11;4;3
42510;PMS7003;28141;51.120;17.114;2022-12-29T10:55:28;16;5;3
42510;PMS7003;28141;51.120;17.114;2022-12-29T11:08:57;11;4;2
42510;PMS7003;28141;51.120;17.114;2022-12-29T11:15:49;10;3;2
42510;PMS7003;28141;51.120;17.114;2022-12-29T11:18:54;13;5;2
42510;PMS7003;28141;51.120;17.114;2022-12-29T11:25:13;11;3;2
42510;PMS7003;28141;51.120;17.114;2022-12-29T11:28:16;12;4;3
42510;PMS7003;28141;51.120;17.114;2022-12-29T11:31:20;12;4;2
42510;PMS7003;28141;51.120;17.114;2022-12-29T11:34:25;11;3;2
42510;PMS7003;28141;51.120;17.114;2022-12-29T11:38:04;11;4;2
42510;PMS7003;28141;51.120;17.114;2022-12-29T11:41:10;10;3;2
42510;PMS7003;28141;51.120;17.114;2022-12-29T11:44:20;10;3;2
42510;PMS7003;28141;51.120;17.114;2022-12-29T11:47:27;11;3;2
42510;PMS7003;28141;51.120;17.114;2022-12-29T11:50:33;12;4;3
42510;PMS7003;28141;51.120;17.114;2022-12-29T11:53:45;9;2;1
42510;PMS7003;28141;51.120;17.114;2022-12-29T11:57:20;11;4;2
42510;PMS7003;28141;51.120;17.114;2022-12-29T12:00:26;11;4;3
42510;PMS7003;28141;51.120;17.114;2022-12-29T12:03:35;10;3;2
42510;PMS7003;28141;51.120;17.114;2022-12-29T12:06:49;11;3;1
42510;PMS7003;28141;51.120;17.114;2022-12-29T12:10:03;12;4;3
42510;PMS7003;28141;51.120;17.114;2022-12-29T12:30:28;13;3;2
42510;PMS7003;28141;51.120;17.114;2022-12-29T12:33:38;10;3;2
42510;PMS7003;28141;51.120;17.114;2022-12-29T12:43:49;11;3;2
42510;PMS7003;28141;51.120;17.114;2022-12-29T12:50:16;13;3;2
42510;PMS7003;28141;51.120;17.114;2022-12-29T13:00:27;10;3;2
42510;PMS7003;28141;51.120;17.114;2022-12-29T13:13:53;11;4;2
42510;PMS7003;28141;51.120;17.114;2022-12-29T13:24:02;10;3;2
42510;PMS7003;28141;51.120;17.114;2022-12-29T13:30:28;12;4;2
42510;PMS7003;28141;51.120;17.114;2022-12-29T13:37:20;10;3;2
42510;PMS7003;28141;51.120;17.114;2022-12-29T13:40:31;11;4;2
42510;PMS7003;28141;51.120;17.114;2022-12-29T13:43:42;10;3;2
42510;PMS7003;28141;51.120;17.114;2022-12-29T13:46:49;10;3;2
42510;PMS7003;28141;51.120;17.114;2022-12-29T13:49:54;13;4;4
42510;PMS7003;28141;51.120;17.114;2022-12-29T14:00:03;10;3;2
42510;PMS7003;28141;51.120;17.114;2022-12-29T14:03:19;11;3;2
42510;PMS7003;28141;51.120;17.114;2022-12-29T14:06:28;11;5;3
42510;PMS7003;28141;51.120;17.114;2022-12-29T14:09:38;11;4;3
42510;PMS7003;28141;51.120;17.114;2022-12-29T14:13:18;11;4;3
42510;PMS7003;28141;51.120;17.114;2022-12-29T14:16:31;13;5;3
42510;PMS7003;28141;51.120;17.114;2022-12-29T14:19:41;12;5;3
42510;PMS7003;28141;51.120;17.114;2022-12-29T14:26:00;11;5;4
42510;PMS7003;28141;51.120;17.114;2022-12-29T14:29:43;12;4;4
42510;PMS7003;28141;51.120;17.114;2022-12-29T14:43:02;13;6;4
42510;PMS7003;28141;51.120;17.114;2022-12-29T14:46:15;13;4;3
42510;PMS7003;28141;51.120;17.114;2022-12-29T14:49:20;14;6;3
42510;PMS7003;28141;51.120;17.114;2022-12-29T14:52:28;13;6;4
42510;PMS7003;28141;51.120;17.114;2022-12-29T14:58:46;14;7;4
42510;PMS7003;28141;51.120;17.114;2022-12-29T15:02:20;12;6;3
42510;PMS7003;28141;51.120;17.114;2022-12-29T15:05:28;14;6;5
42510;PMS7003;28141;51.120;17.114;2022-12-29T15:11:56;14;7;4
42510;PMS7003;28141;51.120;17.114;2022-12-29T15:15:16;15;7;4
42510;PMS7003;28141;51.120;17.114;2022-12-29T15:18:45;12;5;4
42510;PMS7003;28141;51.120;17.114;2022-12-29T15:21:49;13;7;3
42510;PMS7003;28141;51.120;17.114;2022-12-29T15:24:53;13;6;4
42510;PMS7003;28141;51.120;17.114;2022-12-29T15:28:10;13;6;4
42510;PMS7003;28141;51.120;17.114;2022-12-29T15:34:28;16;8;5
42510;PMS7003;28141;51.120;17.114;2022-12-29T15:37:34;13;6;4
42510;PMS7003;28141;51.120;17.114;2022-12-29T15:41:10;14;7;4
42510;PMS7003;28141;51.120;17.114;2022-12-29T15:44:21;14;7;4
42510;PMS7003;28141;51.120;17.114;2022-12-29T15:47:29;15;7;5
42510;PMS7003;28141;51.120;17.114;2022-12-29T15:50:34;15;7;5
42510;PMS7003;28141;51.120;17.114;2022-12-29T15:53:40;15;8;5
42510;PMS7003;28141;51.120;17.114;2022-12-29T15:56:44;14;6;5
42510;PMS7003;28141;51.120;17.114;2022-12-29T15:59:47;13;6;4
42510;PMS7003;28141;51.120;17.114;2022-12-29T16:02:51;17;7;5
42510;PMS7003;28141;51.120;17.114;2022-12-29T16:06:27;15;8;5
42510;PMS7003;28141;51.120;17.114;2022-12-29T16:09:36;14;7;5
42510;PMS7003;28141;51.120;17.114;2022-12-29T16:12:47;18;8;6
42510;PMS7003;28141;51.120;17.114;2022-12-29T16:15:51;15;7;5
42510;PMS7003;28141;51.120;17.114;2022-12-29T16:18:59;17;9;6
42510;PMS7003;28141;51.120;17.114;2022-12-29T16:22:11;15;8;5
42510;PMS7003;28141;51.120;17.114;2022-12-29T16:25:46;17;9;6
42510;PMS7003;28141;51.120;17.114;2022-12-29T16:28:51;18;7;4
42510;PMS7003;28141;51.120;17.114;2022-12-29T16:31:59;16;7;5
42510;PMS7003;28141;51.120;17.114;2022-12-29T16:35:13;17;9;6
42510;PMS7003;28141;51.120;17.114;2022-12-29T16:38:30;18;7;5
42510;PMS7003;28141;51.120;17.114;2022-12-29T16:41:36;17;8;6
42510;PMS7003;28141;51.120;17.114;2022-12-29T16:48:21;20;9;7
42510;PMS7003;28141;51.120;17.114;2022-12-29T16:51:34;16;8;5
42510;PMS7003;28141;51.120;17.114;2022-12-29T16:54:40;14;7;5
42510;PMS7003;28141;51.120;17.114;2022-12-29T16:57:46;14;7;5
42510;PMS7003;28141;51.120;17.114;2022-12-29T17:00:53;19;10;6
42510;PMS7003;28141;51.120;17.114;2022-12-29T17:04:25;16;8;6
42510;PMS7003;28141;51.120;17.114;2022-12-29T17:07:29;17;9;5
42510;PMS7003;28141;51.120;17.114;2022-12-29T17:10:33;19;9;7
42510;PMS7003;28141;51.120;17.114;2022-12-29T17:13:48;21;10;6
42510;PMS7003;28141;51.120;17.114;2022-12-29T17:16:51;18;9;5
42510;PMS7003;28141;51.120;17.114;2022-12-29T17:19:56;19;10;7
42510;PMS7003;28141;51.120;17.114;2022-12-29T17:23:10;15;8;6
42510;PMS7003;28141;51.120;17.114;2022-12-29T17:26:44;19;9;6
42510;PMS7003;28141;51.120;17.114;2022-12-29T17:29:51;17;10;7
42510;PMS7003;28141;51.120;17.114;2022-12-29T17:33:03;16;8;6
42510;PMS7003;28141;51.120;17.114;2022-12-29T17:36:14;16;8;5
42510;PMS7003;28141;51.120;17.114;2022-12-29T17:39:17;17;9;6
42510;PMS7003;28141;51.120;17.114;2022-12-29T17:42:21;20;11;7
42510;PMS7003;28141;51.120;17.114;2022-12-29T17:45:26;17;9;7
42510;PMS7003;28141;51.120;17.114;2022-12-29T17:48:57;15;7;5
42510;PMS7003;28141;51.120;17.114;2022-12-29T17:52:00;18;10;7
42510;PMS7003;28141;51.120;17.114;2022-12-29T17:55:04;17;9;6
42510;PMS7003;28141;51.120;17.114;2022-12-29T17:58:12;17;9;6
42510;PMS7003;28141;51.120;17.114;2022-12-29T18:01:21;17;10;6
42510;PMS7003;28141;51.120;17.114;2022-12-29T18:04:28;20;10;6
42510;PMS7003;28141;51.120;17.114;2022-12-29T18:07:32;16;8;5
42510;PMS7003;28141;51.120;17.114;2022-12-29T18:10:35;15;8;6
42510;PMS7003;28141;51.120;17.114;2022-12-29T18:14:13;17;7;5
42510;PMS7003;28141;51.120;17.114;2022-12-29T18:17:18;19;9;6
42510;PMS7003;28141;51.120;17.114;2022-12-29T18:20:21;14;8;5
42510;PMS7003;28141;51.120;17.114;2022-12-29T18:23:26;15;8;5
42510;PMS7003;28141;51.120;17.114;2022-12-29T18:26:34;16;9;6
42510;PMS7003;28141;51.120;17.114;2022-12-29T18:29:39;18;9;6
42510;PMS7003;28141;51.120;17.114;2022-12-29T18:32:42;17;10;6
42510;PMS7003;28141;51.120;17.114;2022-12-29T18:39:25;16;8;5
42510;PMS7003;28141;51.120;17.114;2022-12-29T18:42:28;17;9;6
42510;PMS7003;28141;51.120;17.114;2022-12-29T18:45:32;18;10;6
42510;PMS7003;28141;51.120;17.114;2022-12-29T18:48:36;17;8;5
42510;PMS7003;28141;51.120;17.114;2022-12-29T18:51:39;16;9;6
42510;PMS7003;28141;51.120;17.114;2022-12-29T18:54:43;18;10;5
42510;PMS7003;28141;51.120;17.114;2022-12-29T18:57:46;15;8;6
42510;PMS7003;28141;51.120;17.114;2022-12-29T19:00:50;15;8;5
42510;PMS7003;28141;51.120;17.114;2022-12-29T19:03:54;16;8;6
42510;PMS7003;28141;51.120;17.114;2022-12-29T19:06:57;19;11;6
42510;PMS7003;28141;51.120;17.114;2022-12-29T19:10:27;19;9;6
42510;PMS7003;28141;51.120;17.114;2022-12-29T19:13:31;15;7;5
42510;PMS7003;28141;51.120;17.114;2022-12-29T19:16:35;17;9;6
42510;PMS7003;28141;51.120;17.114;2022-12-29T19:19:41;16;8;6
42510;PMS7003;28141;51.120;17.114;2022-12-29T19:22:45;15;7;5
42510;PMS7003;28141;51.120;17.114;2022-12-29T19:25:48;15;8;5
42510;PMS7003;28141;51.120;17.114;2022-12-29T19:28:53;15;8;6
42510;PMS7003;28141;51.120;17.114;2022-12-29T19:31:56;18;10;6
42510;PMS7003;28141;51.120;17.114;2022-12-29T19:35:00;17;8;5
42510;PMS7003;28141;51.120;17.114;2022-12-29T19:38:03;14;8;5
42510;PMS7003;28141;51.120;17.114;2022-12-29T19:41:32;16;8;6
42510;PMS7003;28141;51.120;17.114;2022-12-29T19:44:36;14;7;5
42510;PMS7003;28141;51.120;17.114;2022-12-29T19:47:39;16;8;5
42510;PMS7003;28141;51.120;17.114;2022-12-29T19:50:44;17;8;5
42510;PMS7003;28141;51.120;17.114;2022-12-29T19:53:48;19;10;6
42510;PMS7003;28141;51.120;17.114;2022-12-29T19:56:51;14;7;5
42510;PMS7003;28141;51.120;17.114;2022-12-29T19:59:55;15;8;6
42510;PMS7003;28141;51.120;17.114;2022-12-29T20:02:59;15;8;6
42510;PMS7003;28141;51.120;17.114;2022-12-29T20:06:03;15;8;5
42510;PMS7003;28141;51.120;17.114;2022-12-29T20:09:35;15;8;5
42510;PMS7003;28141;51.120;17.114;2022-12-29T20:12:39;15;7;5
42510;PMS7003;28141;51.120;17.114;2022-12-29T20:15:42;16;8;5
42510;PMS7003;28141;51.120;17.114;2022-12-29T20:18:46;14;7;5
42510;PMS7003;28141;51.120;17.114;2022-12-29T20:21:50;17;9;5
42510;PMS7003;28141;51.120;17.114;2022-12-29T20:24:53;17;8;5
42510;PMS7003;28141;51.120;17.114;2022-12-29T20:27:56;17;8;6
42510;PMS7003;28141;51.120;17.114;2022-12-29T20:31:01;16;8;6
42510;PMS7003;28141;51.120;17.114;2022-12-29T20:34:08;17;8;5
42510;PMS7003;28141;51.120;17.114;2022-12-29T20:37:13;16;8;6
42510;PMS7003;28141;51.120;17.114;2022-12-29T20:40:43;16;9;6
42510;PMS7003;28141;51.120;17.114;2022-12-29T20:43:48;17;7;5
42510;PMS7003;28141;51.120;17.114;2022-12-29T20:46:52;16;9;6
42510;PMS7003;28141;51.120;17.114;2022-12-29T20:49:56;14;7;5
42510;PMS7003;28141;51.120;17.114;2022-12-29T20:52:59;16;7;5
42510;PMS7003;28141;51.120;17.114;2022-12-29T20:56:09;18;10;8
42510;PMS7003;28141;51.120;17.114;2022-12-29T20:59:20;16;8;5
42510;PMS7003;28141;51.120;17.114;2022-12-29T21:02:24;15;7;5
42510;PMS7003;28141;51.120;17.114;2022-12-29T21:05:53;15;8;5
42510;PMS7003;28141;51.120;17.114;2022-12-29T21:08:57;15;8;5
42510;PMS7003;28141;51.120;17.114;2022-12-29T21:12:01;14;7;5
42510;PMS7003;28141;51.120;17.114;2022-12-29T21:15:07;17;9;5
42510;PMS7003;28141;51.120;17.114;2022-12-29T21:18:11;16;8;6
42510;PMS7003;28141;51.120;17.114;2022-12-29T21:21:17;16;7;5
42510;PMS7003;28141;51.120;17.114;2022-12-29T21:24:23;15;6;5
42510;PMS7003;28141;51.120;17.114;2022-12-29T21:27:27;15;7;5
42510;PMS7003;28141;51.120;17.114;2022-12-29T21:30:31;14;6;5
42510;PMS7003;28141;51.120;17.114;2022-12-29T21:34:03;15;7;5
42510;PMS7003;28141;51.120;17.114;2022-12-29T21:37:07;17;8;5
42510;PMS7003;28141;51.120;17.114;2022-12-29T21:40:10;16;7;6
42510;PMS7003;28141;51.120;17.114;2022-12-29T21:43:14;15;8;5
42510;PMS7003;28141;51.120;17.114;2022-12-29T21:46:17;17;9;5
42510;PMS7003;28141;51.120;17.114;2022-12-29T21:49:21;15;7;5
42510;PMS7003;28141;51.120;17.114;2022-12-29T21:52:29;16;9;5
42510;PMS7003;28141;51.120;17.114;2022-12-29T21:55:32;14;7;5
42510;PMS7003;28141;51.120;17.114;2022-12-29T21:58:36;17;8;5
42510;PMS7003;28141;51.120;17.114;2022-12-29T22:05:41;14;7;5
42510;PMS7003;28141;51.120;17.114;2022-12-29T22:08:57;15;8;5
42510;PMS7003;28141;51.120;17.114;2022-12-29T22:12:42;18;9;6
42510;PMS7003;28141;51.120;17.114;2022-12-29T22:15:58;14;7;5
42510;PMS7003;28141;51.120;17.114;2022-12-29T22:19:04;14;7;5
42510;PMS7003;28141;51.120;17.114;2022-12-29T22:22:10;14;7;5
42510;PMS7003;28141;51.120;17.114;2022-12-29T22:25:13;15;7;5
42510;PMS7003;28141;51.120;17.114;2022-12-29T22:28:17;16;8;6
42510;PMS7003;28141;51.120;17.114;2022-12-29T22:31:22;16;7;5
42510;PMS7003;28141;51.120;17.114;2022-12-29T22:34:55;16;7;5
42510;PMS7003;28141;51.120;17.114;2022-12-29T22:37:58;15;7;4
42510;PMS7003;28141;51.120;17.114;2022-12-29T22:41:01;15;8;5
42510;PMS7003;28141;51.120;17.114;2022-12-29T22:44:05;17;8;6
42510;PMS7003;28141;51.120;17.114;2022-12-29T22:47:08;15;7;4
42510;PMS7003;28141;51.120;17.114;2022-12-29T22:50:12;14;7;5
42510;PMS7003;28141;51.120;17.114;2022-12-29T22:53:15;16;8;5
42510;PMS7003;28141;51.120;17.114;2022-12-29T22:56:18;17;8;5
42510;PMS7003;28141;51.120;17.114;2022-12-29T22:59:22;15;7;5
42510;PMS7003;28141;51.120;17.114;2022-12-29T23:02:53;15;7;5
42510;PMS7003;28141;51.120;17.114;2022-12-29T23:06:00;14;7;4
42510;PMS7003;28141;51.120;17.114;2022-12-29T23:09:06;16;8;5
42510;PMS7003;28141;51.120;17.114;2022-12-29T23:12:10;17;9;6
42510;PMS7003;28141;51.120;17.114;2022-12-29T23:15:14;14;7;4
42510;PMS7003;28141;51.120;17.114;2022-12-29T23:18:17;16;7;5
42510;PMS7003;28141;51.120;17.114;2022-12-29T23:21:20;16;8;5
42510;PMS7003;28141;51.120;17.114;2022-12-29T23:24:24;16;8;5
42510;PMS7003;28141;51.120;17.114;2022-12-29T23:27:52;17;8;5